sensor_id;sensor_type;location;lat;lon;timestamp;pressure;altitude;pressure_sealevel;temperature;humidity
70072;BME280;57434;42.794;23.302;2023-02-04T00:00:05;95517.06;;;0.77;82.40
70072;BME280;57434;42.794;23.302;2023-02-04T00:01:07;95501.31;;;0.61;81.98
70072;BME280;57434;42.794;23.302;2023-02-04T00:02:09;95513.19;;;0.74;81.92
70072;BME280;57434;42.794;23.302;2023-02-04T00:03:11;95473.94;;;0.50;81.70
70072;BME280;57434;42.794;23.302;2023-02-04T00:04:13;95504.72;;;0.65;81.65
70072;BME280;57434;42.794;23.302;2023-02-04T00:05:17;95509.84;;;0.83;81.47
70072;BME280;57434;42.794;23.302;2023-02-04T00:06:19;95513.38;;;0.83;81.33
70072;BME280;57434;42.794;23.302;2023-02-04T00:07:21;95458.84;;;0.55;81.20
70072;BME280;57434;42.794;23.302;2023-02-04T00:08:23;95311.34;;;-0.38;80.94
70072;BME280;57434;42.794;23.302;2023-02-04T00:09:25;95467.53;;;0.69;80.82
70072;BME280;57434;42.794;23.302;2023-02-04T00:10:26;95500.25;;;0.87;80.66
70072;BME280;57434;42.794;23.302;2023-02-04T00:11:28;95499.03;;;0.72;80.42
70072;BME280;57434;42.794;23.302;2023-02-04T00:12:30;95471.53;;;0.52;80.33
70072;BME280;57434;42.794;23.302;2023-02-04T00:13:32;95503.97;;;0.48;80.46
70072;BME280;57434;42.794;23.302;2023-02-04T00:14:34;95431.13;;;0.10;80.27
70072;BME280;57434;42.794;23.302;2023-02-04T00:15:36;95500.53;;;0.60;80.31
70072;BME280;57434;42.794;23.302;2023-02-04T00:16:38;95499.31;;;0.61;79.48
70072;BME280;57434;42.794;23.302;2023-02-04T00:17:39;95498.25;;;0.72;79.34
70072;BME280;57434;42.794;23.302;2023-02-04T00:18:41;95492.75;;;0.72;79.33
70072;BME280;57434;42.794;23.302;2023-02-04T00:19:43;95477.31;;;0.58;79.24
70072;BME280;57434;42.794;23.302;2023-02-04T00:20:44;95494.81;;;0.67;79.15
70072;BME280;57434;42.794;23.302;2023-02-04T00:21:46;95390.78;;;-0.17;78.89
70072;BME280;57434;42.794;23.302;2023-02-04T00:22:48;95476.53;;;0.57;78.94
70072;BME280;57434;42.794;23.302;2023-02-04T00:23:50;95493.09;;;0.57;79.12
70072;BME280;57434;42.794;23.302;2023-02-04T00:24:51;95449.44;;;0.20;79.17
70072;BME280;57434;42.794;23.302;2023-02-04T00:25:53;95481.59;;;0.43;79.24
70072;BME280;57434;42.794;23.302;2023-02-04T00:26:55;95486.09;;;0.53;79.28
70072;BME280;57434;42.794;23.302;2023-02-04T00:27:57;95487.50;;;0.61;79.37
70072;BME280;57434;42.794;23.302;2023-02-04T00:28:59;95472.91;;;0.44;79.35
70072;BME280;57434;42.794;23.302;2023-02-04T00:30:02;95464.53;;;0.31;79.39
70072;BME280;57434;42.794;23.302;2023-02-04T00:31:04;95464.34;;;0.22;79.17
70072;BME280;57434;42.794;23.302;2023-02-04T00:32:06;95475.50;;;0.51;79.19
70072;BME280;57434;42.794;23.302;2023-02-04T00:33:08;95502.84;;;0.46;78.87
70072;BME280;57434;42.794;23.302;2023-02-04T00:34:09;95425.22;;;0.27;78.60
70072;BME280;57434;42.794;23.302;2023-02-04T00:35:12;95464.28;;;0.42;78.42
70072;BME280;57434;42.794;23.302;2023-02-04T00:36:13;95419.94;;;0.17;78.53
70072;BME280;57434;42.794;23.302;2023-02-04T00:37:15;95419.69;;;0.27;78.09
70072;BME280;57434;42.794;23.302;2023-02-04T00:38:17;95448.84;;;0.28;78.13
70072;BME280;57434;42.794;23.302;2023-02-04T00:39:19;95365.09;;;-0.14;78.11
70072;BME280;57434;42.794;23.302;2023-02-04T00:40:21;95483.53;;;0.62;77.79
70072;BME280;57434;42.794;23.302;2023-02-04T00:41:22;95371.03;;;-0.15;77.76
70072;BME280;57434;42.794;23.302;2023-02-04T00:42:24;95471.88;;;0.54;77.75
70072;BME280;57434;42.794;23.302;2023-02-04T00:43:26;95447.78;;;0.39;77.71
70072;BME280;57434;42.794;23.302;2023-02-04T00:44:28;95463.25;;;0.52;78.05
70072;BME280;57434;42.794;23.302;2023-02-04T00:45:30;95448.16;;;0.57;77.84
70072;BME280;57434;42.794;23.302;2023-02-04T00:46:31;95478.34;;;0.80;77.55
70072;BME280;57434;42.794;23.302;2023-02-04T00:47:33;95449.19;;;0.63;77.52
70072;BME280;57434;42.794;23.302;2023-02-04T00:48:35;95350.31;;;-0.20;77.59
70072;BME280;57434;42.794;23.302;2023-02-04T00:49:37;95428.59;;;0.35;77.96
70072;BME280;57434;42.794;23.302;2023-02-04T00:50:39;95446.06;;;0.45;78.18
70072;BME280;57434;42.794;23.302;2023-02-04T00:51:41;95467.91;;;0.55;78.38
70072;BME280;57434;42.794;23.302;2023-02-04T00:52:42;95463.75;;;0.47;78.29
70072;BME280;57434;42.794;23.302;2023-02-04T00:53:44;95465.50;;;0.57;78.22
70072;BME280;57434;42.794;23.302;2023-02-04T00:54:46;95434.25;;;0.44;78.28
70072;BME280;57434;42.794;23.302;2023-02-04T00:55:48;95454.53;;;0.54;78.05
70072;BME280;57434;42.794;23.302;2023-02-04T00:56:50;95454.38;;;0.61;78.32
70072;BME280;57434;42.794;23.302;2023-02-04T00:57:51;95360.63;;;-0.24;78.42
70072;BME280;57434;42.794;23.302;2023-02-04T00:58:53;95445.31;;;0.28;78.45
70072;BME280;57434;42.794;23.302;2023-02-04T00:59:55;95449.25;;;0.43;78.72
70072;BME280;57434;42.794;23.302;2023-02-04T01:00:56;95412.13;;;0.31;78.73
70072;BME280;57434;42.794;23.302;2023-02-04T01:01:58;95442.56;;;0.60;78.64
70072;BME280;57434;42.794;23.302;2023-02-04T01:03:00;95447.22;;;0.63;78.60
70072;BME280;57434;42.794;23.302;2023-02-04T01:04:02;95415.03;;;0.57;78.38
70072;BME280;57434;42.794;23.302;2023-02-04T01:05:05;95442.44;;;0.80;78.27
70072;BME280;57434;42.794;23.302;2023-02-04T01:06:07;95439.59;;;0.67;78.18
70072;BME280;57434;42.794;23.302;2023-02-04T01:07:09;95420.47;;;0.44;78.39
70072;BME280;57434;42.794;23.302;2023-02-04T01:08:11;95421.41;;;0.38;78.72
70072;BME280;57434;42.794;23.302;2023-02-04T01:09:13;95393.91;;;0.18;78.96
70072;BME280;57434;42.794;23.302;2023-02-04T01:10:14;95420.41;;;0.31;79.31
70072;BME280;57434;42.794;23.302;2023-02-04T01:11:17;95440.63;;;0.41;79.54
70072;BME280;57434;42.794;23.302;2023-02-04T01:12:19;95430.47;;;0.54;79.28
70072;BME280;57434;42.794;23.302;2023-02-04T01:13:22;95429.19;;;0.26;79.10
70072;BME280;57434;42.794;23.302;2023-02-04T01:14:24;95404.69;;;0.28;79.09
70072;BME280;57434;42.794;23.302;2023-02-04T01:15:26;95420.13;;;0.42;79.33
70072;BME280;57434;42.794;23.302;2023-02-04T01:16:28;95428.50;;;0.55;79.20
70072;BME280;57434;42.794;23.302;2023-02-04T01:17:30;95423.06;;;0.51;79.15
70072;BME280;57434;42.794;23.302;2023-02-04T01:18:33;95401.16;;;0.44;78.96
70072;BME280;57434;42.794;23.302;2023-02-04T01:19:34;95405.63;;;0.54;78.91
70072;BME280;57434;42.794;23.302;2023-02-04T01:20:36;95412.66;;;0.72;78.88
70072;BME280;57434;42.794;23.302;2023-02-04T01:21:38;95421.06;;;0.52;78.71
70072;BME280;57434;42.794;23.302;2023-02-04T01:22:41;95216.84;;;-0.71;78.66
70072;BME280;57434;42.794;23.302;2023-02-04T01:23:43;95402.53;;;0.52;79.06
70072;BME280;57434;42.794;23.302;2023-02-04T01:24:45;95406.66;;;0.60;79.16
70072;BME280;57434;42.794;23.302;2023-02-04T01:25:46;95318.16;;;0.06;79.00
70072;BME280;57434;42.794;23.302;2023-02-04T01:26:48;95393.09;;;0.66;78.94
70072;BME280;57434;42.794;23.302;2023-02-04T01:27:50;95388.00;;;0.64;78.55
70072;BME280;57434;42.794;23.302;2023-02-04T01:28:52;95408.00;;;0.68;78.48
70072;BME280;57434;42.794;23.302;2023-02-04T01:29:54;95400.41;;;0.73;78.50
70072;BME280;57434;42.794;23.302;2023-02-04T01:30:55;95405.59;;;0.70;78.44
70072;BME280;57434;42.794;23.302;2023-02-04T01:31:57;95384.28;;;0.71;78.25
70072;BME280;57434;42.794;23.302;2023-02-04T01:32:59;95372.13;;;0.68;77.88
70072;BME280;57434;42.794;23.302;2023-02-04T01:34:01;95337.41;;;0.39;77.31
70072;BME280;57434;42.794;23.302;2023-02-04T01:35:03;95374.66;;;0.63;77.65
70072;BME280;57434;42.794;23.302;2023-02-04T01:36:05;95346.13;;;0.37;77.68
70072;BME280;57434;42.794;23.302;2023-02-04T01:37:07;95390.25;;;0.69;77.97
70072;BME280;57434;42.794;23.302;2023-02-04T01:38:09;95391.31;;;0.59;78.09
70072;BME280;57434;42.794;23.302;2023-02-04T01:39:10;95367.50;;;0.49;78.27
70072;BME280;57434;42.794;23.302;2023-02-04T01:40:12;95387.94;;;0.52;78.44
70072;BME280;57434;42.794;23.302;2023-02-04T01:41:15;95368.88;;;0.41;78.58
70072;BME280;57434;42.794;23.302;2023-02-04T01:42:18;95320.72;;;0.13;78.67
70072;BME280;57434;42.794;23.302;2023-02-04T01:43:20;95380.00;;;0.54;78.70
70072;BME280;57434;42.794;23.302;2023-02-04T01:44:22;95370.44;;;0.42;78.82
70072;BME280;57434;42.794;23.302;2023-02-04T01:45:24;95369.09;;;0.34;78.86
70072;BME280;57434;42.794;23.302;2023-02-04T01:46:25;95337.28;;;0.13;78.97
70072;BME280;57434;42.794;23.302;2023-02-04T01:47:27;95361.72;;;0.44;78.90
70072;BME280;57434;42.794;23.302;2023-02-04T01:48:32;95326.84;;;0.21;78.80
70072;BME280;57434;42.794;23.302;2023-02-04T01:49:34;95197.31;;;-0.60;78.42
70072;BME280;57434;42.794;23.302;2023-02-04T01:50:36;95362.34;;;0.51;78.24
70072;BME280;57434;42.794;23.302;2023-02-04T01:51:38;95326.44;;;0.06;78.08
70072;BME280;57434;42.794;23.302;2023-02-04T01:52:41;95342.34;;;0.31;78.14
70072;BME280;57434;42.794;23.302;2023-02-04T01:53:43;95355.44;;;0.43;78.14
70072;BME280;57434;42.794;23.302;2023-02-04T01:54:45;95336.50;;;0.29;77.82
70072;BME280;57434;42.794;23.302;2023-02-04T01:55:47;95320.28;;;0.31;77.74
70072;BME280;57434;42.794;23.302;2023-02-04T01:56:50;95318.22;;;0.19;77.46
70072;BME280;57434;42.794;23.302;2023-02-04T01:57:52;95350.69;;;0.44;77.46
70072;BME280;57434;42.794;23.302;2023-02-04T01:58:55;95353.78;;;0.46;77.69
70072;BME280;57434;42.794;23.302;2023-02-04T01:59:57;95334.50;;;0.29;77.78
70072;BME280;57434;42.794;23.302;2023-02-04T02:00:59;95349.44;;;0.32;77.98
70072;BME280;57434;42.794;23.302;2023-02-04T02:02:01;95357.63;;;0.35;77.75
70072;BME280;57434;42.794;23.302;2023-02-04T02:03:03;95343.22;;;0.28;78.02
70072;BME280;57434;42.794;23.302;2023-02-04T02:04:05;95336.63;;;0.38;78.15
70072;BME280;57434;42.794;23.302;2023-02-04T02:05:15;95334.34;;;0.37;77.59
70072;BME280;57434;42.794;23.302;2023-02-04T02:06:17;95350.25;;;0.45;77.75
70072;BME280;57434;42.794;23.302;2023-02-04T02:07:18;95341.22;;;0.45;77.58
70072;BME280;57434;42.794;23.302;2023-02-04T02:08:20;95329.47;;;0.41;77.35
70072;BME280;57434;42.794;23.302;2023-02-04T02:09:22;95336.28;;;0.52;76.70
70072;BME280;57434;42.794;23.302;2023-02-04T02:10:25;95329.81;;;0.59;76.51
70072;BME280;57434;42.794;23.302;2023-02-04T02:11:27;95319.13;;;0.45;76.39
70072;BME280;57434;42.794;23.302;2023-02-04T02:13:48;95328.63;;;0.44;76.44
70072;BME280;57434;42.794;23.302;2023-02-04T02:14:50;95319.50;;;0.30;76.75
70072;BME280;57434;42.794;23.302;2023-02-04T02:15:52;95297.66;;;0.07;76.92
70072;BME280;57434;42.794;23.302;2023-02-04T02:16:53;95334.38;;;0.49;76.63
70072;BME280;57434;42.794;23.302;2023-02-04T02:17:55;95308.03;;;0.32;76.77
70072;BME280;57434;42.794;23.302;2023-02-04T02:18:57;95297.00;;;0.32;76.83
70072;BME280;57434;42.794;23.302;2023-02-04T02:19:59;95318.16;;;0.51;76.96
70072;BME280;57434;42.794;23.302;2023-02-04T02:21:04;95314.19;;;0.52;76.76
70072;BME280;57434;42.794;23.302;2023-02-04T02:22:17;95185.16;;;-0.30;76.53
70072;BME280;57434;42.794;23.302;2023-02-04T02:23:25;95333.13;;;0.66;76.46
70072;BME280;57434;42.794;23.302;2023-02-04T02:24:32;95162.69;;;-0.29;76.05
70072;BME280;57434;42.794;23.302;2023-02-04T02:25:34;95272.22;;;0.45;76.11
70072;BME280;57434;42.794;23.302;2023-02-04T02:26:36;95301.03;;;0.73;75.98
70072;BME280;57434;42.794;23.302;2023-02-04T02:27:38;95256.53;;;0.42;75.82
70072;BME280;57434;42.794;23.302;2023-02-04T02:28:41;95273.03;;;0.29;75.94
70072;BME280;57434;42.794;23.302;2023-02-04T02:29:43;95248.91;;;0.33;76.14
70072;BME280;57434;42.794;23.302;2023-02-04T02:30:46;95286.88;;;0.42;76.45
70072;BME280;57434;42.794;23.302;2023-02-04T02:31:49;95287.22;;;0.44;76.74
70072;BME280;57434;42.794;23.302;2023-02-04T02:32:51;95284.63;;;0.53;76.82
70072;BME280;57434;42.794;23.302;2023-02-04T02:33:53;95288.16;;;0.53;76.83
70072;BME280;57434;42.794;23.302;2023-02-04T02:34:54;95250.63;;;0.27;76.98
70072;BME280;57434;42.794;23.302;2023-02-04T02:35:56;95248.66;;;0.27;77.38
70072;BME280;57434;42.794;23.302;2023-02-04T02:36:59;95265.66;;;0.39;77.52
70072;BME280;57434;42.794;23.302;2023-02-04T02:38:02;95270.91;;;0.49;77.58
70072;BME280;57434;42.794;23.302;2023-02-04T02:39:03;95261.91;;;0.32;78.03
70072;BME280;57434;42.794;23.302;2023-02-04T02:40:06;95267.56;;;0.42;78.26
70072;BME280;57434;42.794;23.302;2023-02-04T02:41:08;95288.88;;;0.41;78.30
70072;BME280;57434;42.794;23.302;2023-02-04T02:42:14;95240.38;;;0.11;78.41
70072;BME280;57434;42.794;23.302;2023-02-04T02:43:20;95252.03;;;0.19;78.76
70072;BME280;57434;42.794;23.302;2023-02-04T02:44:24;95255.75;;;0.41;78.93
70072;BME280;57434;42.794;23.302;2023-02-04T02:45:29;95266.94;;;0.50;78.84
70072;BME280;57434;42.794;23.302;2023-02-04T02:46:31;95243.94;;;0.41;78.85
70072;BME280;57434;42.794;23.302;2023-02-04T02:47:33;95253.53;;;0.36;79.37
70072;BME280;57434;42.794;23.302;2023-02-04T02:48:36;95264.59;;;0.36;79.92
70072;BME280;57434;42.794;23.302;2023-02-04T02:49:39;95255.03;;;0.24;79.89
70072;BME280;57434;42.794;23.302;2023-02-04T02:50:41;95254.63;;;0.39;79.72
70072;BME280;57434;42.794;23.302;2023-02-04T02:51:44;95242.19;;;0.18;79.89
70072;BME280;57434;42.794;23.302;2023-02-04T02:52:46;95276.81;;;0.35;80.52
70072;BME280;57434;42.794;23.302;2023-02-04T02:53:48;95263.34;;;0.37;80.60
70072;BME280;57434;42.794;23.302;2023-02-04T02:54:50;95262.19;;;0.22;81.18
70072;BME280;57434;42.794;23.302;2023-02-04T02:55:52;95255.97;;;0.18;81.42
70072;BME280;57434;42.794;23.302;2023-02-04T02:56:54;95253.41;;;0.11;81.34
70072;BME280;57434;42.794;23.302;2023-02-04T02:57:57;95290.56;;;0.22;81.68
70072;BME280;57434;42.794;23.302;2023-02-04T02:59:15;95257.44;;;0.22;81.69
70072;BME280;57434;42.794;23.302;2023-02-04T03:00:23;95283.47;;;0.21;81.87
70072;BME280;57434;42.794;23.302;2023-02-04T03:01:25;95267.44;;;0.32;81.73
70072;BME280;57434;42.794;23.302;2023-02-04T03:02:27;95252.09;;;0.31;81.58
70072;BME280;57434;42.794;23.302;2023-02-04T03:03:35;95260.44;;;0.28;81.73
70072;BME280;57434;42.794;23.302;2023-02-04T03:04:43;95232.31;;;0.04;81.72
70072;BME280;57434;42.794;23.302;2023-02-04T03:05:47;95237.41;;;0.06;81.79
70072;BME280;57434;42.794;23.302;2023-02-04T03:06:51;95255.91;;;0.21;81.97
70072;BME280;57434;42.794;23.302;2023-02-04T03:07:53;95262.69;;;0.33;81.99
70072;BME280;57434;42.794;23.302;2023-02-04T03:08:55;95241.75;;;0.19;81.70
70072;BME280;57434;42.794;23.302;2023-02-04T03:09:58;95254.53;;;0.13;81.87
70072;BME280;57434;42.794;23.302;2023-02-04T03:11:00;95260.72;;;0.33;81.93
70072;BME280;57434;42.794;23.302;2023-02-04T03:12:03;95255.28;;;0.30;81.94
70072;BME280;57434;42.794;23.302;2023-02-04T03:13:06;95248.13;;;0.32;82.25
70072;BME280;57434;42.794;23.302;2023-02-04T03:14:08;95236.19;;;0.07;82.01
70072;BME280;57434;42.794;23.302;2023-02-04T03:15:10;95249.59;;;0.21;82.64
70072;BME280;57434;42.794;23.302;2023-02-04T03:16:12;95239.25;;;0.25;82.50
70072;BME280;57434;42.794;23.302;2023-02-04T03:17:14;95183.13;;;-0.14;82.30
70072;BME280;57434;42.794;23.302;2023-02-04T03:18:18;95246.56;;;0.31;82.48
70072;BME280;57434;42.794;23.302;2023-02-04T03:19:22;95236.53;;;0.38;82.30
70072;BME280;57434;42.794;23.302;2023-02-04T03:20:27;95173.63;;;0.04;81.98
70072;BME280;57434;42.794;23.302;2023-02-04T03:21:30;95206.34;;;0.18;81.69
70072;BME280;57434;42.794;23.302;2023-02-04T03:22:32;95244.19;;;0.46;81.79
70072;BME280;57434;42.794;23.302;2023-02-04T03:23:35;95233.25;;;0.43;81.72
70072;BME280;57434;42.794;23.302;2023-02-04T03:24:37;95240.31;;;0.44;81.74
70072;BME280;57434;42.794;23.302;2023-02-04T03:25:39;95202.84;;;0.30;81.47
70072;BME280;57434;42.794;23.302;2023-02-04T03:26:41;95219.00;;;0.44;81.41
70072;BME280;57434;42.794;23.302;2023-02-04T03:27:43;95220.97;;;0.31;81.26
70072;BME280;57434;42.794;23.302;2023-02-04T03:28:45;95214.69;;;0.43;81.23
70072;BME280;57434;42.794;23.302;2023-02-04T03:29:46;95050.97;;;-0.62;80.99
70072;BME280;57434;42.794;23.302;2023-02-04T03:30:48;95226.41;;;0.47;81.07
70072;BME280;57434;42.794;23.302;2023-02-04T03:31:50;95204.75;;;0.33;81.18
70072;BME280;57434;42.794;23.302;2023-02-04T03:32:53;95209.59;;;0.29;81.28
70072;BME280;57434;42.794;23.302;2023-02-04T03:33:54;95220.91;;;0.47;81.31
70072;BME280;57434;42.794;23.302;2023-02-04T03:34:56;95218.22;;;0.44;81.17
70072;BME280;57434;42.794;23.302;2023-02-04T03:35:58;95220.38;;;0.52;81.29
70072;BME280;57434;42.794;23.302;2023-02-04T03:36:59;95225.78;;;0.56;80.98
70072;BME280;57434;42.794;23.302;2023-02-04T03:38:01;95197.16;;;0.50;80.92
70072;BME280;57434;42.794;23.302;2023-02-04T03:39:03;95219.94;;;0.66;80.73
70072;BME280;57434;42.794;23.302;2023-02-04T03:40:05;95212.75;;;0.56;80.45
70072;BME280;57434;42.794;23.302;2023-02-04T03:41:07;95058.22;;;-0.40;80.76
70072;BME280;57434;42.794;23.302;2023-02-04T03:42:09;95155.41;;;0.35;80.61
70072;BME280;57434;42.794;23.302;2023-02-04T03:43:10;95177.06;;;0.37;80.71
70072;BME280;57434;42.794;23.302;2023-02-04T03:44:12;95193.44;;;0.56;80.64
70072;BME280;57434;42.794;23.302;2023-02-04T03:45:14;95205.06;;;0.64;80.51
70072;BME280;57434;42.794;23.302;2023-02-04T03:46:16;95168.72;;;0.24;80.49
70072;BME280;57434;42.794;23.302;2023-02-04T03:47:17;95209.81;;;0.63;80.65
70072;BME280;57434;42.794;23.302;2023-02-04T03:48:19;95211.22;;;0.55;80.65
70072;BME280;57434;42.794;23.302;2023-02-04T03:49:21;95214.75;;;0.68;80.78
70072;BME280;57434;42.794;23.302;2023-02-04T03:50:23;95175.56;;;0.61;80.36
70072;BME280;57434;42.794;23.302;2023-02-04T03:51:25;95208.03;;;0.69;80.66
70072;BME280;57434;42.794;23.302;2023-02-04T03:52:26;95155.41;;;0.35;80.64
70072;BME280;57434;42.794;23.302;2023-02-04T03:53:29;95204.38;;;0.60;81.08
70072;BME280;57434;42.794;23.302;2023-02-04T03:54:30;95203.38;;;0.66;80.98
70072;BME280;57434;42.794;23.302;2023-02-04T03:55:32;95183.94;;;0.57;81.01
70072;BME280;57434;42.794;23.302;2023-02-04T03:56:34;95199.88;;;0.79;80.97
70072;BME280;57434;42.794;23.302;2023-02-04T03:57:36;95183.84;;;0.61;80.84
70072;BME280;57434;42.794;23.302;2023-02-04T03:58:37;95197.75;;;0.70;80.98
70072;BME280;57434;42.794;23.302;2023-02-04T03:59:39;95188.16;;;0.62;80.94
70072;BME280;57434;42.794;23.302;2023-02-04T04:00:41;95180.97;;;0.64;81.05
70072;BME280;57434;42.794;23.302;2023-02-04T04:01:43;95195.00;;;0.70;81.21
70072;BME280;57434;42.794;23.302;2023-02-04T04:02:44;95199.06;;;0.53;81.85
70072;BME280;57434;42.794;23.302;2023-02-04T04:03:46;95118.38;;;0.07;81.68
70072;BME280;57434;42.794;23.302;2023-02-04T04:04:48;95187.03;;;0.59;82.03
70072;BME280;57434;42.794;23.302;2023-02-04T04:05:50;95159.94;;;0.42;82.50
70072;BME280;57434;42.794;23.302;2023-02-04T04:06:52;95072.75;;;-0.10;82.66
70072;BME280;57434;42.794;23.302;2023-02-04T04:07:54;95201.19;;;0.61;82.92
70072;BME280;57434;42.794;23.302;2023-02-04T04:08:55;95183.31;;;0.37;83.78
70072;BME280;57434;42.794;23.302;2023-02-04T04:09:57;95202.94;;;0.55;84.11
70072;BME280;57434;42.794;23.302;2023-02-04T04:10:59;95191.66;;;0.50;84.31
70072;BME280;57434;42.794;23.302;2023-02-04T04:12:00;95205.78;;;0.52;84.77
70072;BME280;57434;42.794;23.302;2023-02-04T04:13:02;95177.28;;;0.42;84.75
70072;BME280;57434;42.794;23.302;2023-02-04T04:14:04;95191.59;;;0.37;85.31
70072;BME280;57434;42.794;23.302;2023-02-04T04:15:06;95178.38;;;0.32;85.56
70072;BME280;57434;42.794;23.302;2023-02-04T04:16:08;94980.81;;;-0.87;85.73
70072;BME280;57434;42.794;23.302;2023-02-04T04:17:10;95180.72;;;0.46;86.08
70072;BME280;57434;42.794;23.302;2023-02-04T04:18:12;95178.03;;;0.43;86.11
70072;BME280;57434;42.794;23.302;2023-02-04T04:19:13;95200.34;;;0.35;86.31
70072;BME280;57434;42.794;23.302;2023-02-04T04:20:15;95151.16;;;0.18;86.43
70072;BME280;57434;42.794;23.302;2023-02-04T04:21:17;95171.06;;;0.25;86.62
70072;BME280;57434;42.794;23.302;2023-02-04T04:22:19;95084.72;;;-0.29;86.84
70072;BME280;57434;42.794;23.302;2023-02-04T04:23:20;95157.56;;;0.15;86.96
70072;BME280;57434;42.794;23.302;2023-02-04T04:24:22;95173.66;;;0.16;87.26
70072;BME280;57434;42.794;23.302;2023-02-04T04:25:24;95186.84;;;0.25;87.52
70072;BME280;57434;42.794;23.302;2023-02-04T04:26:26;95179.63;;;0.15;87.65
70072;BME280;57434;42.794;23.302;2023-02-04T04:27:28;95181.06;;;0.19;88.04
70072;BME280;57434;42.794;23.302;2023-02-04T04:28:29;95181.50;;;0.18;88.08
70072;BME280;57434;42.794;23.302;2023-02-04T04:29:31;95166.34;;;0.10;88.16
70072;BME280;57434;42.794;23.302;2023-02-04T04:30:33;95173.28;;;0.01;88.37
70072;BME280;57434;42.794;23.302;2023-02-04T04:31:35;95170.53;;;0.01;88.51
70072;BME280;57434;42.794;23.302;2023-02-04T04:32:37;95151.66;;;-0.00;88.38
70072;BME280;57434;42.794;23.302;2023-02-04T04:33:39;95167.81;;;0.14;88.40
70072;BME280;57434;42.794;23.302;2023-02-04T04:34:40;95191.91;;;0.26;88.50
70072;BME280;57434;42.794;23.302;2023-02-04T04:35:42;95191.13;;;0.26;88.56
70072;BME280;57434;42.794;23.302;2023-02-04T04:36:44;95152.78;;;0.02;88.89
70072;BME280;57434;42.794;23.302;2023-02-04T04:37:46;95158.28;;;0.02;89.06
70072;BME280;57434;42.794;23.302;2023-02-04T04:38:48;95176.41;;;0.16;89.15
70072;BME280;57434;42.794;23.302;2023-02-04T04:39:50;95105.41;;;-0.38;89.03
70072;BME280;57434;42.794;23.302;2023-02-04T04:40:52;95025.03;;;-0.78;89.38
70072;BME280;57434;42.794;23.302;2023-02-04T04:41:54;95153.47;;;0.07;89.36
70072;BME280;57434;42.794;23.302;2023-02-04T04:42:55;95181.31;;;0.25;89.53
70072;BME280;57434;42.794;23.302;2023-02-04T04:43:57;95181.38;;;0.09;89.70
70072;BME280;57434;42.794;23.302;2023-02-04T04:44:59;95110.50;;;-0.36;89.73
70072;BME280;57434;42.794;23.302;2023-02-04T04:46:01;95169.75;;;0.01;90.14
70072;BME280;57434;42.794;23.302;2023-02-04T04:47:02;95158.72;;;0.01;89.97
70072;BME280;57434;42.794;23.302;2023-02-04T04:48:04;95187.38;;;0.20;90.04
70072;BME280;57434;42.794;23.302;2023-02-04T04:49:06;95186.22;;;0.05;90.15
70072;BME280;57434;42.794;23.302;2023-02-04T04:50:08;95201.59;;;0.18;90.18
70072;BME280;57434;42.794;23.302;2023-02-04T04:51:10;95209.44;;;0.20;90.46
70072;BME280;57434;42.794;23.302;2023-02-04T04:52:13;95202.19;;;0.26;90.38
70072;BME280;57434;42.794;23.302;2023-02-04T04:53:14;95206.50;;;0.11;90.54
70072;BME280;57434;42.794;23.302;2023-02-04T04:54:16;95175.22;;;-0.12;90.66
70072;BME280;57434;42.794;23.302;2023-02-04T04:55:18;95188.63;;;0.02;91.06
70072;BME280;57434;42.794;23.302;2023-02-04T04:56:20;95167.03;;;-0.15;91.27
70072;BME280;57434;42.794;23.302;2023-02-04T04:57:21;95187.84;;;0.02;91.40
70072;BME280;57434;42.794;23.302;2023-02-04T04:58:23;95200.22;;;0.10;91.64
70072;BME280;57434;42.794;23.302;2023-02-04T04:59:25;95120.00;;;-0.53;91.52
70072;BME280;57434;42.794;23.302;2023-02-04T05:00:27;95192.00;;;0.23;91.78
70072;BME280;57434;42.794;23.302;2023-02-04T05:01:28;95168.81;;;0.20;91.42
70072;BME280;57434;42.794;23.302;2023-02-04T05:02:30;95199.44;;;0.39;91.65
70072;BME280;57434;42.794;23.302;2023-02-04T05:03:32;95200.91;;;0.43;91.64
70072;BME280;57434;42.794;23.302;2023-02-04T05:04:34;95195.47;;;0.40;91.52
70072;BME280;57434;42.794;23.302;2023-02-04T05:05:35;95154.31;;;0.04;91.43
70072;BME280;57434;42.794;23.302;2023-02-04T05:06:37;95214.41;;;0.25;91.56
70072;BME280;57434;42.794;23.302;2023-02-04T05:07:39;95209.97;;;0.15;91.66
70072;BME280;57434;42.794;23.302;2023-02-04T05:08:41;95205.66;;;0.14;91.73
70072;BME280;57434;42.794;23.302;2023-02-04T05:09:42;95229.84;;;0.22;91.85
70072;BME280;57434;42.794;23.302;2023-02-04T05:10:44;95207.44;;;-0.09;92.04
70072;BME280;57434;42.794;23.302;2023-02-04T05:11:46;95148.41;;;-0.56;92.29
70072;BME280;57434;42.794;23.302;2023-02-04T05:12:47;95250.75;;;0.07;92.44
70072;BME280;57434;42.794;23.302;2023-02-04T05:13:49;95221.59;;;-0.23;93.21
70072;BME280;57434;42.794;23.302;2023-02-04T05:14:51;95179.25;;;-0.61;93.43
70072;BME280;57434;42.794;23.302;2023-02-04T05:15:53;95222.13;;;-0.28;93.52
70072;BME280;57434;42.794;23.302;2023-02-04T05:16:54;95238.63;;;0.05;93.57
70072;BME280;57434;42.794;23.302;2023-02-04T05:17:56;95224.81;;;0.05;93.63
70072;BME280;57434;42.794;23.302;2023-02-04T05:18:58;95223.63;;;0.06;93.72
70072;BME280;57434;42.794;23.302;2023-02-04T05:20:00;95223.97;;;0.08;93.86
70072;BME280;57434;42.794;23.302;2023-02-04T05:21:01;95223.97;;;0.08;93.69
70072;BME280;57434;42.794;23.302;2023-02-04T05:22:03;95200.22;;;-0.19;93.62
70072;BME280;57434;42.794;23.302;2023-02-04T05:23:05;95178.78;;;-0.27;93.59
70072;BME280;57434;42.794;23.302;2023-02-04T05:24:07;95214.59;;;0.18;93.76
70072;BME280;57434;42.794;23.302;2023-02-04T05:25:08;95211.84;;;0.18;93.58
70072;BME280;57434;42.794;23.302;2023-02-04T05:26:10;95245.25;;;0.36;93.42
70072;BME280;57434;42.794;23.302;2023-02-04T05:27:22;95250.66;;;0.40;93.21
70072;BME280;57434;42.794;23.302;2023-02-04T05:28:24;95220.97;;;0.31;93.03
70072;BME280;57434;42.794;23.302;2023-02-04T05:29:26;95185.44;;;0.04;92.79
70072;BME280;57434;42.794;23.302;2023-02-04T05:30:27;95143.84;;;-0.18;92.48